Time;durP1;ratioP1;P1;durP2;ratioP2;P2;SDS_P1;SDS_P2;PMS_P1;PMS_P2;Temp;Humidity;BMP_temperature;BMP_pressure;BME280_temperature;BME280_humidity;BME280_pressure;Samples;Min_cycle;Max_cycle;Signal;HPM_P1;HPM_P2
2023/03/03 00:02:26;;;;;;;11.32;4.03;;;3.40;12.60;;;;;;26149372;22;20021;-42
2023/03/03 00:12:29;;;;;;;5.63;3.05;;;3.20;14.60;;;;;;26139966;22;20463;-42
2023/03/03 00:22:34;;;;;;;8.30;3.13;;;3.20;24.30;;;;;;26149514;22;20351;-42
2023/03/03 00:32:46;;;;;;;5.47;3.28;;;3.30;30.70;;;;;;26142453;22;20018;-42
2023/03/03 00:42:52;;;;;;;5.95;2.90;;;3.30;34.40;;;;;;26144283;22;20598;-42
2023/03/03 00:53:06;;;;;;;7.22;3.28;;;3.40;32.40;;;;;;26151693;22;20071;-42
2023/03/03 01:03:12;;;;;;;4.50;2.13;;;3.40;32.70;;;;;;26117234;22;20475;-42
2023/03/03 01:13:13;;;;;;;9.23;3.85;;;3.50;32.20;;;;;;26153822;22;20452;-43
2023/03/03 01:23:14;;;;;;;10.88;4.57;;;3.50;28.40;;;;;;26156096;22;20446;-42
2023/03/03 01:33:16;;;;;;;6.30;3.60;;;3.40;26.40;;;;;;26117343;22;20339;-42
2023/03/03 01:43:17;;;;;;;5.72;4.03;;;3.20;28.50;;;;;;26153666;22;20011;-42
2023/03/03 01:53:27;;;;;;;8.02;4.38;;;3.00;25.50;;;;;;26149978;22;20018;-42
2023/03/03 02:03:29;;;;;;;8.52;4.85;;;2.80;22.50;;;;;;26148189;22;20006;-42
2023/03/03 02:13:30;;;;;;;12.02;5.78;;;2.60;14.20;;;;;;26146312;22;20022;-42
2023/03/03 02:23:48;;;;;;;10.80;3.97;;;2.30;21.10;;;;;;26147564;22;20389;-42
2023/03/03 02:33:51;;;;;;;11.20;5.53;;;2.30;33.70;;;;;;26147460;22;20369;-42
2023/03/03 02:44:02;;;;;;;13.02;6.43;;;2.20;48.60;;;;;;26152630;22;20013;-42
2023/03/03 02:54:04;;;;;;;7.68;3.35;;;2.30;67.10;;;;;;26163595;22;20019;-42
2023/03/03 03:04:09;;;;;;;6.88;3.22;;;2.40;60.40;;;;;;26159826;22;20021;-42
2023/03/03 03:14:12;;;;;;;9.65;3.75;;;2.50;66.60;;;;;;26156969;22;20857;-42
2023/03/03 03:24:13;;;;;;;14.23;5.68;;;2.40;76.30;;;;;;26159289;22;20037;-42
2023/03/03 03:34:14;;;;;;;9.20;5.13;;;2.40;78.80;;;;;;26161185;22;20444;-42
2023/03/03 03:44:15;;;;;;;11.85;5.90;;;2.40;80.70;;;;;;26168642;22;20015;-42
2023/03/03 03:54:16;;;;;;;7.72;4.45;;;2.30;87.10;;;;;;26147898;22;20120;-42
2023/03/03 04:04:17;;;;;;;8.20;4.38;;;2.40;91.20;;;;;;26149092;22;20021;-42
2023/03/03 04:14:18;;;;;;;6.30;3.85;;;2.30;95.90;;;;;;26149926;22;20026;-42
2023/03/03 04:24:19;;;;;;;6.55;4.03;;;2.30;97.90;;;;;;26146986;22;20011;-42
2023/03/03 04:34:20;;;;;;;10.68;4.90;;;2.50;99.90;;;;;;26140921;22;20595;-42
2023/03/03 04:44:21;;;;;;;12.32;5.45;;;2.40;99.90;;;;;;26145970;22;20015;-42
2023/03/03 04:54:22;;;;;;;10.15;4.60;;;2.50;99.90;;;;;;26148059;22;20471;-42
2023/03/03 05:04:23;;;;;;;13.45;6.53;;;2.50;99.90;;;;;;26149505;22;20524;-42
2023/03/03 05:14:26;;;;;;;15.68;6.75;;;2.50;99.90;;;;;;26150168;22;20023;-42
2023/03/03 05:24:27;;;;;;;5.13;3.40;;;2.50;99.90;;;;;;26123144;22;20006;-42
2023/03/03 05:34:28;;;;;;;6.85;3.25;;;2.50;99.90;;;;;;26145861;22;20018;-42
2023/03/03 05:44:29;;;;;;;9.88;4.53;;;2.60;99.90;;;;;;26119311;22;20010;-42
2023/03/03 05:54:31;;;;;;;7.15;3.65;;;2.60;99.90;;;;;;26145547;22;20014;-42
2023/03/03 06:04:32;;;;;;;8.25;3.25;;;2.60;99.90;;;;;;26136291;22;20019;-42
2023/03/03 06:14:33;;;;;;;6.82;3.13;;;2.60;99.90;;;;;;26147075;22;20019;-42
2023/03/03 06:24:34;;;;;;;9.40;4.05;;;2.70;99.90;;;;;;26143905;22;20003;-42
2023/03/03 06:34:36;;;;;;;6.10;2.22;;;2.70;99.90;;;;;;26149046;22;20655;-42
2023/03/03 06:44:37;;;;;;;4.28;2.78;;;2.60;99.90;;;;;;26150013;22;20010;-42
2023/03/03 06:54:38;;;;;;;4.70;2.63;;;2.70;99.90;;;;;;26147296;22;20014;-42
2023/03/03 07:04:39;;;;;;;5.95;2.85;;;2.70;99.90;;;;;;26151748;22;20248;-42
2023/03/03 07:14:43;;;;;;;4.25;2.85;;;2.70;99.90;;;;;;26143681;22;20027;-42
2023/03/03 07:24:50;;;;;;;5.55;3.85;;;2.80;99.90;;;;;;26146869;22;20456;-42
2023/03/03 07:34:53;;;;;;;;;;;2.90;99.90;;;;;;26152595;22;20010;-42
2023/03/03 07:44:58;;;;;;;5.88;3.55;;;2.90;99.90;;;;;;26150262;22;19906;-42
2023/03/03 07:55:17;;;;;;;6.78;4.65;;;3.00;99.90;;;;;;26156219;22;20504;-42
2023/03/03 08:05:25;;;;;;;8.02;4.82;;;3.10;99.90;;;;;;26156358;22;20013;-42
2023/03/03 08:15:35;;;;;;;8.98;4.63;;;3.20;99.90;;;;;;26159117;22;20044;-42
2023/03/03 08:25:37;;;;;;;8.43;4.68;;;3.30;99.90;;;;;;26154157;22;20078;-42
2023/03/03 08:35:38;;;;;;;4.72;2.25;;;3.40;99.90;;;;;;26115418;22;20010;-42
2023/03/03 08:45:39;;;;;;;6.40;2.65;;;3.50;99.90;;;;;;26133670;22;20007;-42
2023/03/03 08:55:41;;;;;;;6.10;3.22;;;3.60;99.90;;;;;;26140754;22;20333;-42
2023/03/03 09:05:43;;;;;;;3.58;2.72;;;3.90;99.90;;;;;;26146293;22;20030;-42
2023/03/03 09:15:45;;;;;;;7.50;3.20;;;4.00;99.90;;;;;;26142006;22;20325;-43
2023/03/03 09:25:47;;;;;;;7.50;2.90;;;4.20;99.90;;;;;;26137569;22;20007;-43
2023/03/03 09:35:51;;;;;;;3.50;1.75;;;4.40;99.90;;;;;;26126527;22;20484;-43
2023/03/03 09:46:15;;;;;;;4.57;2.72;;;5.00;73.60;;;;;;26137832;22;20014;-43
2023/03/03 09:56:37;;;;;;;2.97;1.55;;;5.50;42.50;;;;;;26139548;22;20492;-43
2023/03/03 10:06:44;;;;;;;3.55;1.35;;;5.60;26.30;;;;;;26137779;22;20017;-43
2023/03/03 10:17:13;;;;;;;4.22;1.60;;;5.80;21.30;;;;;;26135842;22;20029;-43
2023/03/03 10:27:43;;;;;;;2.38;1.27;;;5.90;16.50;;;;;;26166278;22;20013;-43
2023/03/03 10:38:24;;;;;;;1.83;1.10;;;6.30;9.90;;;;;;26153583;22;20068;-43
2023/03/03 10:48:25;;;;;;;4.57;1.65;;;6.60;3.30;;;;;;26158585;22;20010;-43
2023/03/03 10:58:49;;;;;;;1.67;0.90;;;6.60;6.50;;;;;;26146851;22;20015;-43
2023/03/03 11:09:21;;;;;;;4.53;1.40;;;7.20;1.10;;;;;;26162165;22;20273;-43
2023/03/03 11:19:34;;;;;;;1.60;0.70;;;7.80;1.00;;;;;;26168054;22;20559;-43
2023/03/03 11:30:07;;;;;;;1.15;0.60;;;8.70;1.00;;;;;;26173684;22;20018;-43
2023/03/03 11:40:36;;;;;;;1.45;0.50;;;8.90;1.00;;;;;;26170254;22;20743;-43
2023/03/03 11:50:57;;;;;;;0.93;0.60;;;9.50;1.00;;;;;;26140679;22;20436;-43
2023/03/03 12:00:58;;;;;;;1.42;0.68;;;10.00;1.00;;;;;;26158366;22;20014;-43
2023/03/03 12:11:30;;;;;;;2.22;0.68;;;9.80;1.00;;;;;;26167062;22;20041;-43
2023/03/03 12:21:48;;;;;;;0.40;0.20;;;8.70;1.00;;;;;;26075706;22;20496;-42
2023/03/03 12:32:10;;;;;;;1.45;0.20;;;10.10;1.00;;;;;;26143108;22;20014;-42
2023/03/03 12:42:29;;;;;;;1.85;1.00;;;11.30;1.00;;;;;;26116129;22;20357;-43
2023/03/03 12:52:56;;;;;;;1.10;0.35;;;10.90;1.00;;;;;;26136972;22;20021;-43
2023/03/03 13:03:39;;;;;;;2.97;0.65;;;11.40;1.00;;;;;;26134528;22;20015;-42
2023/03/03 13:14:02;;;;;;;0.75;0.30;;;11.90;1.00;;;;;;26123075;22;20023;-42
2023/03/03 13:24:18;;;;;;;0.95;0.22;;;11.80;1.00;;;;;;26137813;22;20025;-41
2023/03/03 13:34:44;;;;;;;0.22;0.10;;;11.50;1.00;;;;;;26097449;22;20015;-41
2023/03/03 13:44:48;;;;;;;1.23;0.63;;;11.00;1.00;;;;;;26141807;22;20015;-42
2023/03/03 13:55:28;;;;;;;1.73;0.60;;;10.50;1.00;;;;;;26106503;22;20460;-42
2023/03/03 14:05:46;;;;;;;1.02;0.30;;;9.60;1.00;;;;;;26133270;22;20006;-42
2023/03/03 14:15:57;;;;;;;0.52;0.20;;;9.10;1.00;;;;;;26129687;22;21889;-42
2023/03/03 14:25:58;;;;;;;0.63;0.20;;;8.70;1.00;;;;;;26145013;22;20034;-42
2023/03/03 14:36:02;;;;;;;0.80;0.20;;;8.70;1.00;;;;;;26118612;22;20073;-42
2023/03/03 14:46:25;;;;;;;0.57;0.20;;;8.40;1.00;;;;;;26129082;22;20474;-42
2023/03/03 14:56:38;;;;;;;1.35;0.70;;;8.40;1.00;;;;;;26129549;22;20015;-42
2023/03/03 15:06:47;;;;;;;1.30;0.40;;;8.50;1.00;;;;;;26141934;22;20067;-42
2023/03/03 15:16:49;;;;;;;1.27;0.40;;;8.20;1.00;;;;;;26123686;22;20025;-42
2023/03/03 15:26:53;;;;;;;1.20;0.45;;;8.30;1.00;;;;;;26144426;22;20019;-42
2023/03/03 15:37:07;;;;;;;1.42;0.55;;;8.20;1.00;;;;;;26143437;22;20121;-42
2023/03/03 15:47:29;;;;;;;1.35;0.30;;;8.20;1.00;;;;;;26152532;22;20078;-42
2023/03/03 15:57:54;;;;;;;0.95;0.30;;;8.20;1.00;;;;;;26163895;22;20087;-42
2023/03/03 16:08:10;;;;;;;0.75;0.35;;;8.20;1.00;;;;;;26162008;22;20014;-42
2023/03/03 16:18:21;;;;;;;0.88;0.30;;;8.10;1.00;;;;;;26170229;22;20019;-42
2023/03/03 16:28:45;;;;;;;0.57;0.28;;;8.00;1.00;;;;;;26169477;22;20077;-42
2023/03/03 16:39:10;;;;;;;0.93;0.35;;;7.90;1.00;;;;;;26162596;22;20011;-42
2023/03/03 16:50:05;;;;;;;3.92;0.93;;;7.70;1.00;;;;;;26133102;22;20513;-42
2023/03/03 17:00:22;;;;;;;3.17;0.68;;;7.60;1.00;;;;;;26148301;22;20033;-42
2023/03/03 17:10:25;;;;;;;3.20;0.47;;;7.50;1.00;;;;;;26159215;22;20019;-42
2023/03/03 17:21:01;;;;;;;1.42;0.70;;;7.40;1.00;;;;;;26156108;22;20018;-42
2023/03/03 17:31:12;;;;;;;1.77;0.70;;;7.30;1.00;;;;;;26050294;22;20530;-42
2023/03/03 17:41:22;;;;;;;1.08;0.47;;;7.30;1.00;;;;;;26158059;22;20448;-42
2023/03/03 17:51:38;;;;;;;6.57;1.10;;;7.20;1.00;;;;;;26153514;22;20049;-42
2023/03/03 18:02:00;;;;;;;1.77;0.73;;;7.20;1.00;;;;;;26147989;22;20103;-42
2023/03/03 18:12:36;;;;;;;1.58;0.55;;;7.10;1.00;;;;;;26131210;22;20046;-43
2023/03/03 18:22:46;;;;;;;1.50;0.88;;;7.10;1.00;;;;;;26165226;22;20022;-42
2023/03/03 18:33:04;;;;;;;2.58;0.80;;;7.00;1.00;;;;;;26158559;22;20013;-42
2023/03/03 18:43:43;;;;;;;9.27;2.00;;;6.90;1.00;;;;;;26158268;22;21590;-42
2023/03/03 18:54:02;;;;;;;3.33;1.77;;;6.90;1.00;;;;;;26153763;22;20415;-42
2023/03/03 19:04:09;;;;;;;3.05;1.45;;;7.00;1.00;;;;;;26170132;22;20073;-42
2023/03/03 19:14:16;;;;;;;2.70;1.08;;;6.80;1.00;;;;;;26167071;22;20417;-42
2023/03/03 19:24:30;;;;;;;5.13;1.87;;;6.80;1.00;;;;;;26157630;22;20280;-42
2023/03/03 19:35:01;;;;;;;3.83;1.38;;;6.70;1.00;;;;;;26172505;22;20030;-42
2023/03/03 19:45:24;;;;;;;4.35;1.40;;;6.70;1.00;;;;;;26148320;22;20126;-42
2023/03/03 19:55:51;;;;;;;4.25;1.58;;;6.70;1.00;;;;;;26174726;22;20355;-42
2023/03/03 20:05:52;;;;;;;3.13;2.13;;;6.60;1.00;;;;;;26174166;22;20370;-42
2023/03/03 20:16:22;;;;;;;4.25;1.70;;;6.70;1.00;;;;;;26143524;22;20457;-42
2023/03/03 20:26:29;;;;;;;12.50;2.85;;;6.60;1.00;;;;;;26148718;22;20019;-42
2023/03/03 20:36:48;;;;;;;5.10;2.57;;;6.70;1.00;;;;;;26160935;22;20025;-42
2023/03/03 20:47:34;;;;;;;4.10;1.88;;;6.60;1.00;;;;;;26153033;22;20097;-42
2023/03/03 20:58:04;;;;;;;3.50;1.77;;;6.70;1.00;;;;;;26115232;22;21282;-42
2023/03/03 21:08:06;;;;;;;8.93;2.72;;;6.70;1.00;;;;;;26145762;22;20014;-43
2023/03/03 21:18:23;;;;;;;3.35;1.58;;;6.60;1.00;;;;;;26151444;22;20029;-43
2023/03/03 21:28:30;;;;;;;3.67;1.92;;;6.60;1.00;;;;;;26153653;22;20342;-43
2023/03/03 21:38:32;;;;;;;2.50;0.97;;;6.70;1.00;;;;;;26152966;22;20021;-43
2023/03/03 21:48:33;;;;;;;6.05;2.53;;;6.60;1.00;;;;;;26123516;22;20341;-43
2023/03/03 21:58:36;;;;;;;4.50;2.20;;;6.60;1.00;;;;;;26159284;22;20014;-43
2023/03/03 22:08:38;;;;;;;5.15;1.00;;;6.70;1.00;;;;;;26162740;22;20307;-43
2023/03/03 22:18:39;;;;;;;3.03;1.13;;;6.70;1.00;;;;;;26155801;22;20029;-43
2023/03/03 22:28:40;;;;;;;2.03;1.00;;;6.70;1.00;;;;;;26154541;22;20034;-43
2023/03/03 22:38:41;;;;;;;2.33;1.10;;;6.60;1.00;;;;;;26147153;22;20021;-43
2023/03/03 22:48:43;;;;;;;4.72;1.60;;;6.70;1.00;;;;;;26157522;22;20027;-43
2023/03/03 22:58:45;;;;;;;2.75;1.35;;;6.60;1.00;;;;;;26120302;22;20025;-43
2023/03/03 23:08:46;;;;;;;3.65;1.85;;;6.60;1.00;;;;;;26157830;22;20010;-43
2023/03/03 23:18:47;;;;;;;1.73;0.80;;;6.60;1.00;;;;;;26156671;22;20600;-42
2023/03/03 23:28:48;;;;;;;4.03;1.65;;;6.50;1.00;;;;;;26166101;22;20018;-43
2023/03/03 23:38:49;;;;;;;2.90;1.35;;;6.50;1.00;;;;;;26156411;22;20014;-43
2023/03/03 23:48:50;;;;;;;2.65;1.30;;;6.50;1.00;;;;;;26125670;22;20020;-43
2023/03/03 23:58:51;;;;;;;2.58;0.70;;;6.50;1.00;;;;;;26150842;22;20024;-43
